createdAt,value
2023-03-30T00:00:00.155Z,994.38
2023-03-30T00:05:00.243Z,994.07
2023-03-30T00:10:00.118Z,994.23
2023-03-30T00:15:00.166Z,994.29
2023-03-30T00:20:00.165Z,993.92
2023-03-30T00:25:00.150Z,993.76
2023-03-30T00:30:00.165Z,993.61
2023-03-30T00:35:00.134Z,993.56
2023-03-30T00:40:00.145Z,993.5
2023-03-30T00:45:00.146Z,993.64
2023-03-30T00:50:00.132Z,993.49
2023-03-30T00:55:00.126Z,993.32
2023-03-30T01:00:00.214Z,993.23
2023-03-30T01:05:00.123Z,993.23
2023-03-30T01:10:00.122Z,993.16
2023-03-30T01:15:00.130Z,993.14
2023-03-30T01:20:00.105Z,993.15
2023-03-30T01:25:00.112Z,993.13
2023-03-30T01:30:00.162Z,992.95
2023-03-30T01:35:00.148Z,992.87
2023-03-30T01:40:00.169Z,992.85
2023-03-30T01:45:00.156Z,993
2023-03-30T01:50:00.142Z,992.94
2023-03-30T01:55:00.140Z,992.81
2023-03-30T02:00:00.197Z,992.77
2023-03-30T02:05:00.118Z,992.56
2023-03-30T02:10:00.164Z,992.5
2023-03-30T02:15:00.148Z,992.31
2023-03-30T02:20:00.119Z,992.16
2023-03-30T02:25:00.122Z,992.19
2023-03-30T02:30:00.161Z,992.11
2023-03-30T02:35:00.144Z,992.01
2023-03-30T02:40:00.126Z,991.84
2023-03-30T02:45:00.154Z,991.82
2023-03-30T02:50:00.162Z,991.87
2023-03-30T02:55:00.131Z,991.82
2023-03-30T03:00:00.134Z,991.77
2023-03-30T03:05:00.137Z,991.7
2023-03-30T03:10:00.101Z,991.66
2023-03-30T03:15:00.151Z,991.78
2023-03-30T03:20:00.142Z,991.66
2023-03-30T03:25:00.149Z,991.57
2023-03-30T03:30:00.135Z,990.84
2023-03-30T03:35:00.126Z,990.8
2023-03-30T03:40:00.157Z,990.85
2023-03-30T03:45:00.133Z,990.81
2023-03-30T03:50:00.148Z,990.84
2023-03-30T03:55:00.118Z,990.99
2023-03-30T04:00:00.223Z,990.99
2023-03-30T04:05:00.221Z,990.91
2023-03-30T04:10:00.118Z,990.91
2023-03-30T04:15:00.153Z,990.95
2023-03-30T04:20:00.123Z,990.8
2023-03-30T04:25:00.117Z,990.75
2023-03-30T04:30:00.134Z,990.69
2023-03-30T04:35:00.129Z,990.58
2023-03-30T04:40:00.110Z,990.67
2023-03-30T04:45:00.107Z,990.69
2023-03-30T04:50:00.131Z,990.54
2023-03-30T04:55:00.140Z,990.52
2023-03-30T05:00:00.117Z,990.37
2023-03-30T05:05:00.140Z,990.28
2023-03-30T05:10:00.188Z,990.39
2023-03-30T05:15:00.142Z,990.72
2023-03-30T05:20:00.128Z,990.6
2023-03-30T05:25:00.114Z,990.48
2023-03-30T05:30:00.155Z,990.39
2023-03-30T05:35:00.118Z,990.53
2023-03-30T05:40:00.155Z,990.54
2023-03-30T05:45:00.138Z,990.67
2023-03-30T05:50:00.145Z,990.62
2023-03-30T05:55:00.125Z,990.61
2023-03-30T06:00:00.132Z,990.38
2023-03-30T06:05:00.161Z,990.21
2023-03-30T06:10:00.154Z,989.97
2023-03-30T06:15:00.118Z,990.14
2023-03-30T06:20:00.167Z,990
2023-03-30T06:25:00.103Z,989.88
2023-03-30T06:30:00.178Z,989.85
2023-03-30T06:35:00.142Z,989.84
2023-03-30T06:40:00.150Z,989.89
2023-03-30T06:45:00.165Z,989.77
2023-03-30T06:50:00.109Z,989.84
2023-03-30T06:55:00.114Z,989.76
2023-03-30T07:00:00.129Z,989.56
2023-03-30T07:05:00.106Z,989.43
2023-03-30T07:10:00.094Z,989.56
2023-03-30T07:15:00.148Z,989.57
2023-03-30T07:20:00.104Z,989.54
2023-03-30T07:25:00.135Z,989.65
2023-03-30T07:30:07.457Z,989.75
2023-03-30T07:35:00.145Z,989.76
2023-03-30T07:40:00.214Z,989.65
2023-03-30T07:45:00.123Z,989.76
2023-03-30T07:50:00.170Z,989.68
2023-03-30T07:55:00.144Z,989.82
2023-03-30T08:00:00.133Z,989.86
2023-03-30T08:05:00.349Z,989.81
2023-03-30T08:55:00.144Z,990.31
2023-03-30T09:00:00.143Z,990.31
2023-03-30T09:05:00.185Z,990.31
2023-03-30T09:10:00.137Z,990.31
2023-03-30T09:15:00.150Z,990.31
2023-03-30T09:20:00.132Z,990.31
2023-03-30T09:25:00.125Z,990.31
2023-03-30T09:30:00.128Z,990.31
2023-03-30T09:35:00.195Z,990.31
2023-03-30T09:40:00.114Z,990.31
2023-03-30T09:45:00.113Z,990.31
2023-03-30T09:50:00.160Z,990.31
2023-03-30T09:55:00.137Z,990.31
2023-03-30T10:00:00.208Z,990.31
2023-03-30T10:05:00.203Z,990.31
2023-03-30T10:10:00.168Z,990.31
2023-03-30T10:15:00.153Z,990.31
2023-03-30T10:20:07.475Z,990.31
2023-03-30T10:25:00.135Z,990.31
2023-03-30T10:30:00.109Z,990.31
2023-03-30T10:35:00.120Z,990.31
2023-03-30T10:40:00.151Z,990.31
2023-03-30T10:45:00.115Z,990.31
2023-03-30T10:50:00.141Z,990.31
2023-03-30T10:55:00.131Z,990.31
2023-03-30T11:00:00.400Z,990.31
2023-03-30T11:05:00.143Z,990.31
2023-03-30T11:10:00.121Z,990.31
2023-03-30T11:15:00.140Z,990.31
2023-03-30T11:20:00.152Z,990.31
2023-03-30T11:25:00.122Z,990.31
2023-03-30T11:30:00.136Z,990.31
2023-03-30T11:35:00.128Z,990.31
2023-03-30T11:40:00.180Z,990.31
2023-03-30T11:45:00.128Z,990.31
2023-03-30T11:50:00.134Z,990.31
2023-03-30T11:55:03.332Z,990.31
2023-03-30T12:00:00.158Z,990.31
2023-03-30T12:05:00.223Z,990.31
2023-03-30T12:10:02.694Z,990.31
2023-03-30T12:15:00.242Z,990.31
2023-03-30T12:20:00.122Z,990.31
2023-03-30T12:25:00.157Z,990.31
2023-03-30T12:30:02.840Z,990.31
2023-03-30T12:35:00.136Z,990.31
2023-03-30T12:40:00.208Z,990.31
2023-03-30T12:45:00.141Z,990.31
2023-03-30T12:50:00.145Z,990.31
2023-03-30T12:55:00.239Z,990.31
2023-03-30T13:00:00.130Z,990.31
2023-03-30T13:05:00.141Z,990.31
2023-03-30T13:10:00.172Z,990.31
2023-03-30T13:15:00.158Z,990.31
2023-03-30T13:20:00.154Z,990.31
2023-03-30T13:25:00.139Z,990.31
2023-03-30T13:30:00.152Z,990.31
2023-03-30T13:35:06.527Z,990.31
2023-03-30T13:40:00.160Z,990.31
2023-03-30T13:45:00.133Z,990.31
2023-03-30T13:50:00.099Z,990.31
2023-03-30T13:55:00.188Z,990.31
2023-03-30T14:00:00.150Z,990.31
2023-03-30T14:05:00.120Z,990.31
2023-03-30T14:10:00.179Z,990.31
2023-03-30T14:15:00.129Z,990.31
2023-03-30T14:20:00.153Z,990.31
2023-03-30T14:25:00.194Z,990.31
2023-03-30T14:30:00.116Z,990.31
2023-03-30T14:35:00.232Z,990.31
2023-03-30T14:40:00.211Z,990.31
2023-03-30T14:45:00.116Z,990.31
2023-03-30T14:50:00.120Z,990.31
2023-03-30T14:55:07.140Z,990.31
2023-03-30T15:00:00.126Z,990.31
2023-03-30T15:05:00.106Z,990.31
2023-03-30T15:10:00.173Z,990.31
2023-03-30T15:15:00.135Z,990.31
2023-03-30T15:20:00.159Z,990.31
2023-03-30T15:25:00.159Z,990.31
2023-03-30T15:30:01.852Z,990.31
2023-03-30T15:35:00.198Z,990.31
2023-03-30T15:40:00.178Z,990.31
2023-03-30T15:45:00.112Z,990.31
2023-03-30T15:50:00.129Z,990.31
2023-03-30T15:55:00.145Z,990.31
2023-03-30T16:00:00.261Z,990.31
2023-03-30T16:05:00.193Z,990.31
2023-03-30T16:10:00.239Z,990.31
2023-03-30T16:15:00.164Z,990.31
2023-03-30T16:20:00.219Z,990.31
2023-03-30T16:25:00.308Z,990.31
2023-03-30T16:30:00.119Z,990.31
2023-03-30T16:35:00.132Z,990.31
2023-03-30T16:40:00.163Z,990.31
2023-03-30T16:45:00.109Z,990.31
2023-03-30T16:50:00.121Z,990.31
2023-03-30T16:55:00.140Z,990.31
2023-03-30T17:00:00.146Z,990.31
2023-03-30T17:05:00.101Z,990.31
2023-03-30T17:10:00.126Z,990.31
2023-03-30T17:15:00.157Z,990.31
2023-03-30T17:20:00.136Z,990.31
2023-03-30T17:25:00.109Z,990.31
2023-03-30T17:30:00.143Z,990.31
2023-03-30T17:35:00.129Z,990.31
2023-03-30T17:40:00.091Z,990.31
2023-03-30T17:45:00.113Z,990.31
2023-03-30T17:50:00.168Z,990.31
2023-03-30T17:55:00.202Z,990.31
2023-03-30T18:00:00.156Z,990.31
2023-03-30T18:05:00.119Z,990.31
2023-03-30T18:10:00.124Z,990.31
2023-03-30T18:15:00.144Z,990.31
2023-03-30T18:20:00.156Z,990.31
2023-03-30T18:25:00.104Z,990.31
2023-03-30T18:30:00.130Z,990.31
2023-03-30T18:35:00.153Z,990.31
2023-03-30T18:40:00.133Z,990.31
2023-03-30T18:45:00.160Z,990.31
2023-03-30T18:50:00.113Z,990.31
2023-03-30T18:55:00.172Z,990.31
2023-03-30T19:00:00.152Z,990.31
2023-03-30T19:05:00.143Z,990.31
2023-03-30T19:10:00.158Z,990.31
2023-03-30T19:15:00.140Z,990.31
2023-03-30T19:20:00.119Z,990.31
2023-03-30T19:25:00.123Z,990.31
2023-03-30T19:30:00.169Z,990.31
2023-03-30T19:35:00.148Z,990.31
2023-03-30T19:40:00.133Z,990.31
2023-03-30T19:45:00.122Z,990.31
2023-03-30T19:50:00.117Z,990.31
2023-03-30T19:55:00.126Z,990.31
2023-03-30T20:00:00.202Z,990.31
2023-03-30T20:05:00.118Z,990.31
2023-03-30T20:10:00.133Z,990.31
2023-03-30T20:15:00.147Z,990.31
2023-03-30T20:20:00.117Z,990.31
2023-03-30T20:25:00.143Z,990.31
2023-03-30T20:30:00.166Z,990.31
2023-03-30T20:35:00.129Z,990.31
2023-03-30T20:40:02.444Z,990.31
2023-03-30T20:45:00.142Z,990.31
2023-03-30T20:50:00.134Z,990.31
2023-03-30T20:55:00.150Z,990.31
2023-03-30T21:00:00.196Z,990.31
2023-03-30T21:05:00.151Z,990.31
2023-03-30T21:10:00.152Z,990.31
2023-03-30T21:15:00.147Z,990.31
2023-03-30T21:20:00.139Z,990.31
2023-03-30T21:25:00.152Z,990.31
2023-03-30T21:30:00.488Z,990.31
2023-03-30T21:35:00.155Z,990.31
2023-03-30T21:40:00.157Z,990.31
2023-03-30T21:45:00.147Z,990.31
2023-03-30T21:50:00.111Z,990.31
2023-03-30T21:55:00.139Z,990.31
2023-03-30T22:00:00.197Z,990.31
2023-03-30T22:05:00.107Z,990.31
2023-03-30T22:10:00.150Z,990.31
2023-03-30T22:15:00.116Z,990.31
2023-03-30T22:20:00.161Z,990.31
2023-03-30T22:25:00.138Z,990.31
2023-03-30T22:30:00.161Z,990.31
2023-03-30T22:35:00.169Z,990.31
2023-03-30T22:40:00.110Z,990.31
2023-03-30T22:45:00.165Z,990.31
2023-03-30T22:50:00.131Z,990.31
2023-03-30T22:55:00.141Z,990.31
2023-03-30T23:00:00.223Z,990.31
2023-03-30T23:05:00.123Z,990.31
2023-03-30T23:10:00.150Z,990.31
2023-03-30T23:15:00.128Z,990.31
2023-03-30T23:20:00.165Z,990.31
2023-03-30T23:25:00.095Z,990.31
2023-03-30T23:30:00.179Z,990.31
2023-03-30T23:35:00.140Z,990.31
2023-03-30T23:40:00.145Z,990.31
2023-03-30T23:45:00.115Z,990.31
2023-03-30T23:50:00.118Z,990.31
2023-03-30T23:55:00.132Z,990.31
